sensor_id;sensor_type;location;lat;lon;timestamp;temperature;humidity
3727;DHT22;1879;45.876;12.300;2022-09-27T00:01:44;16.10;99.90
3727;DHT22;1879;45.876;12.300;2022-09-27T00:04:13;16.10;99.90
3727;DHT22;1879;45.876;12.300;2022-09-27T00:06:40;16.10;99.90
3727;DHT22;1879;45.876;12.300;2022-09-27T00:09:07;16.10;99.90
3727;DHT22;1879;45.876;12.300;2022-09-27T00:11:37;16.00;99.90
3727;DHT22;1879;45.876;12.300;2022-09-27T00:14:05;16.10;99.90
3727;DHT22;1879;45.876;12.300;2022-09-27T00:16:34;16.20;99.90
3727;DHT22;1879;45.876;12.300;2022-09-27T00:19:03;16.20;99.90
3727;DHT22;1879;45.876;12.300;2022-09-27T00:21:32;16.30;99.90
3727;DHT22;1879;45.876;12.300;2022-09-27T00:23:59;16.30;99.90
3727;DHT22;1879;45.876;12.300;2022-09-27T00:26:26;16.30;99.90
3727;DHT22;1879;45.876;12.300;2022-09-27T00:28:54;16.30;99.90
3727;DHT22;1879;45.876;12.300;2022-09-27T00:31:23;16.20;99.90
3727;DHT22;1879;45.876;12.300;2022-09-27T00:33:51;16.20;99.90
3727;DHT22;1879;45.876;12.300;2022-09-27T00:36:20;16.20;99.90
3727;DHT22;1879;45.876;12.300;2022-09-27T00:38:49;16.20;99.90
3727;DHT22;1879;45.876;12.300;2022-09-27T00:41:18;16.30;99.90
3727;DHT22;1879;45.876;12.300;2022-09-27T00:43:48;16.30;99.90
3727;DHT22;1879;45.876;12.300;2022-09-27T00:46:20;16.40;99.90
3727;DHT22;1879;45.876;12.300;2022-09-27T00:48:59;16.40;99.90
3727;DHT22;1879;45.876;12.300;2022-09-27T00:51:27;16.40;99.90
3727;DHT22;1879;45.876;12.300;2022-09-27T00:53:56;16.40;99.90
3727;DHT22;1879;45.876;12.300;2022-09-27T00:56:28;16.40;99.90
3727;DHT22;1879;45.876;12.300;2022-09-27T00:58:58;16.40;99.90
3727;DHT22;1879;45.876;12.300;2022-09-27T01:01:26;16.30;99.90
3727;DHT22;1879;45.876;12.300;2022-09-27T01:03:58;16.30;99.90
3727;DHT22;1879;45.876;12.300;2022-09-27T01:06:26;16.30;99.90
3727;DHT22;1879;45.876;12.300;2022-09-27T01:08:54;16.30;99.90
3727;DHT22;1879;45.876;12.300;2022-09-27T01:11:31;16.30;99.90
3727;DHT22;1879;45.876;12.300;2022-09-27T01:14:16;16.30;99.90
3727;DHT22;1879;45.876;12.300;2022-09-27T01:16:54;16.30;99.90
3727;DHT22;1879;45.876;12.300;2022-09-27T01:22:23;16.40;99.90
3727;DHT22;1879;45.876;12.300;2022-09-27T01:25:00;16.40;99.90
3727;DHT22;1879;45.876;12.300;2022-09-27T01:28:03;16.40;99.90
3727;DHT22;1879;45.876;12.300;2022-09-27T01:30:44;16.40;99.90
3727;DHT22;1879;45.876;12.300;2022-09-27T01:33:41;16.30;99.90
3727;DHT22;1879;45.876;12.300;2022-09-27T01:36:18;16.20;99.90
3727;DHT22;1879;45.876;12.300;2022-09-27T01:38:56;16.20;99.90
3727;DHT22;1879;45.876;12.300;2022-09-27T01:41:32;16.20;99.90
3727;DHT22;1879;45.876;12.300;2022-09-27T01:44:03;16.20;99.90
3727;DHT22;1879;45.876;12.300;2022-09-27T01:46:36;16.10;99.90
3727;DHT22;1879;45.876;12.300;2022-09-27T01:49:09;16.10;99.90
3727;DHT22;1879;45.876;12.300;2022-09-27T01:51:41;16.10;99.90
3727;DHT22;1879;45.876;12.300;2022-09-27T01:54:12;16.00;99.90
3727;DHT22;1879;45.876;12.300;2022-09-27T01:56:42;15.90;99.90
3727;DHT22;1879;45.876;12.300;2022-09-27T01:59:14;15.90;99.90
3727;DHT22;1879;45.876;12.300;2022-09-27T02:01:45;16.00;99.90
3727;DHT22;1879;45.876;12.300;2022-09-27T02:04:18;16.00;99.90
3727;DHT22;1879;45.876;12.300;2022-09-27T02:06:48;16.00;99.90
3727;DHT22;1879;45.876;12.300;2022-09-27T02:09:19;16.00;99.90
3727;DHT22;1879;45.876;12.300;2022-09-27T02:11:51;16.00;99.90
3727;DHT22;1879;45.876;12.300;2022-09-27T02:14:25;16.00;99.90
3727;DHT22;1879;45.876;12.300;2022-09-27T02:16:59;15.90;99.90
3727;DHT22;1879;45.876;12.300;2022-09-27T02:19:39;15.90;99.90
3727;DHT22;1879;45.876;12.300;2022-09-27T02:22:14;15.90;99.90
3727;DHT22;1879;45.876;12.300;2022-09-27T02:24:47;15.90;99.90
3727;DHT22;1879;45.876;12.300;2022-09-27T02:27:19;15.90;99.90
3727;DHT22;1879;45.876;12.300;2022-09-27T02:29:50;16.00;99.90
3727;DHT22;1879;45.876;12.300;2022-09-27T02:32:20;16.10;99.90
3727;DHT22;1879;45.876;12.300;2022-09-27T02:34:48;16.10;99.90
3727;DHT22;1879;45.876;12.300;2022-09-27T02:37:16;16.10;99.90
3727;DHT22;1879;45.876;12.300;2022-09-27T02:39:43;16.10;99.90
3727;DHT22;1879;45.876;12.300;2022-09-27T02:42:10;16.00;99.90
3727;DHT22;1879;45.876;12.300;2022-09-27T02:44:38;15.90;99.90
3727;DHT22;1879;45.876;12.300;2022-09-27T02:47:36;15.90;99.90
3727;DHT22;1879;45.876;12.300;2022-09-27T02:50:47;15.80;99.90
3727;DHT22;1879;45.876;12.300;2022-09-27T02:53:23;15.80;99.90
3727;DHT22;1879;45.876;12.300;2022-09-27T02:56:00;15.80;99.90
3727;DHT22;1879;45.876;12.300;2022-09-27T02:58:35;15.80;99.90
3727;DHT22;1879;45.876;12.300;2022-09-27T03:01:10;15.70;99.90
3727;DHT22;1879;45.876;12.300;2022-09-27T03:03:45;15.70;99.90
3727;DHT22;1879;45.876;12.300;2022-09-27T03:06:17;15.70;99.90
3727;DHT22;1879;45.876;12.300;2022-09-27T03:08:45;15.70;99.90
3727;DHT22;1879;45.876;12.300;2022-09-27T03:11:13;15.70;99.90
3727;DHT22;1879;45.876;12.300;2022-09-27T03:13:40;15.70;99.90
3727;DHT22;1879;45.876;12.300;2022-09-27T03:16:08;15.70;99.90
3727;DHT22;1879;45.876;12.300;2022-09-27T03:18:35;15.70;99.90
3727;DHT22;1879;45.876;12.300;2022-09-27T03:21:03;15.70;99.90
3727;DHT22;1879;45.876;12.300;2022-09-27T03:23:30;15.70;99.90
3727;DHT22;1879;45.876;12.300;2022-09-27T03:25:57;15.70;99.90
3727;DHT22;1879;45.876;12.300;2022-09-27T03:28:24;15.70;99.90
3727;DHT22;1879;45.876;12.300;2022-09-27T03:30:54;15.80;99.90
3727;DHT22;1879;45.876;12.300;2022-09-27T03:33:21;15.80;99.90
3727;DHT22;1879;45.876;12.300;2022-09-27T03:35:48;15.90;99.90
3727;DHT22;1879;45.876;12.300;2022-09-27T03:38:16;16.00;99.90
3727;DHT22;1879;45.876;12.300;2022-09-27T03:40:43;16.00;99.90
3727;DHT22;1879;45.876;12.300;2022-09-27T03:43:10;16.00;99.90
3727;DHT22;1879;45.876;12.300;2022-09-27T03:45:37;15.90;99.90
3727;DHT22;1879;45.876;12.300;2022-09-27T03:48:04;15.90;99.90
3727;DHT22;1879;45.876;12.300;2022-09-27T03:50:31;15.80;99.90
3727;DHT22;1879;45.876;12.300;2022-09-27T03:52:59;15.80;99.90
3727;DHT22;1879;45.876;12.300;2022-09-27T03:55:27;15.70;99.90
3727;DHT22;1879;45.876;12.300;2022-09-27T03:57:54;15.70;99.90
3727;DHT22;1879;45.876;12.300;2022-09-27T04:00:21;15.70;99.90
3727;DHT22;1879;45.876;12.300;2022-09-27T04:02:49;15.70;99.90
3727;DHT22;1879;45.876;12.300;2022-09-27T04:05:16;15.70;99.90
3727;DHT22;1879;45.876;12.300;2022-09-27T04:07:45;15.70;99.90
3727;DHT22;1879;45.876;12.300;2022-09-27T04:10:13;15.70;99.90
3727;DHT22;1879;45.876;12.300;2022-09-27T04:12:42;15.70;99.90
3727;DHT22;1879;45.876;12.300;2022-09-27T04:15:10;15.70;99.90
3727;DHT22;1879;45.876;12.300;2022-09-27T04:17:37;15.70;99.90
3727;DHT22;1879;45.876;12.300;2022-09-27T04:20:07;15.80;99.90
3727;DHT22;1879;45.876;12.300;2022-09-27T04:22:34;15.80;99.90
3727;DHT22;1879;45.876;12.300;2022-09-27T04:25:01;15.80;99.90
3727;DHT22;1879;45.876;12.300;2022-09-27T04:27:28;15.80;99.90
3727;DHT22;1879;45.876;12.300;2022-09-27T04:29:56;15.80;99.90
3727;DHT22;1879;45.876;12.300;2022-09-27T04:32:23;15.80;99.90
3727;DHT22;1879;45.876;12.300;2022-09-27T04:34:50;15.70;99.90
3727;DHT22;1879;45.876;12.300;2022-09-27T04:37:31;15.70;99.90
3727;DHT22;1879;45.876;12.300;2022-09-27T04:39:58;15.70;99.90
3727;DHT22;1879;45.876;12.300;2022-09-27T04:42:25;15.80;99.90
3727;DHT22;1879;45.876;12.300;2022-09-27T04:44:52;15.80;99.90
3727;DHT22;1879;45.876;12.300;2022-09-27T04:47:20;15.90;99.90
3727;DHT22;1879;45.876;12.300;2022-09-27T04:49:47;15.90;99.90
3727;DHT22;1879;45.876;12.300;2022-09-27T04:52:16;15.80;99.90
3727;DHT22;1879;45.876;12.300;2022-09-27T04:54:43;15.80;99.90
3727;DHT22;1879;45.876;12.300;2022-09-27T04:57:10;15.80;99.90
3727;DHT22;1879;45.876;12.300;2022-09-27T04:59:39;15.80;99.90
3727;DHT22;1879;45.876;12.300;2022-09-27T05:02:07;15.70;99.90
3727;DHT22;1879;45.876;12.300;2022-09-27T05:04:35;15.60;99.90
3727;DHT22;1879;45.876;12.300;2022-09-27T05:07:02;15.40;99.90
3727;DHT22;1879;45.876;12.300;2022-09-27T05:09:29;15.40;99.90
3727;DHT22;1879;45.876;12.300;2022-09-27T05:11:56;15.40;99.90
3727;DHT22;1879;45.876;12.300;2022-09-27T05:14:23;15.40;99.90
3727;DHT22;1879;45.876;12.300;2022-09-27T05:16:52;15.50;99.90
3727;DHT22;1879;45.876;12.300;2022-09-27T05:19:20;15.50;99.90
3727;DHT22;1879;45.876;12.300;2022-09-27T05:21:48;15.50;99.90
3727;DHT22;1879;45.876;12.300;2022-09-27T05:24:15;15.40;99.90
3727;DHT22;1879;45.876;12.300;2022-09-27T05:26:42;15.50;99.90
3727;DHT22;1879;45.876;12.300;2022-09-27T05:29:10;15.50;99.90
3727;DHT22;1879;45.876;12.300;2022-09-27T05:31:37;15.60;99.90
3727;DHT22;1879;45.876;12.300;2022-09-27T05:34:04;15.60;99.90
3727;DHT22;1879;45.876;12.300;2022-09-27T05:36:36;15.60;99.90
3727;DHT22;1879;45.876;12.300;2022-09-27T05:39:04;15.70;99.90
3727;DHT22;1879;45.876;12.300;2022-09-27T05:41:32;15.60;99.90
3727;DHT22;1879;45.876;12.300;2022-09-27T05:44:02;15.60;99.90
3727;DHT22;1879;45.876;12.300;2022-09-27T05:46:30;15.60;99.90
3727;DHT22;1879;45.876;12.300;2022-09-27T05:48:57;15.60;99.90
3727;DHT22;1879;45.876;12.300;2022-09-27T05:51:24;15.70;99.90
3727;DHT22;1879;45.876;12.300;2022-09-27T05:53:51;15.70;99.90
3727;DHT22;1879;45.876;12.300;2022-09-27T05:56:20;15.80;99.90
3727;DHT22;1879;45.876;12.300;2022-09-27T05:58:47;15.90;99.90
3727;DHT22;1879;45.876;12.300;2022-09-27T06:01:14;15.90;99.90
3727;DHT22;1879;45.876;12.300;2022-09-27T06:03:41;16.00;99.90
3727;DHT22;1879;45.876;12.300;2022-09-27T06:06:08;15.90;99.90
3727;DHT22;1879;45.876;12.300;2022-09-27T06:08:38;15.80;99.90
3727;DHT22;1879;45.876;12.300;2022-09-27T06:11:07;15.80;99.90
3727;DHT22;1879;45.876;12.300;2022-09-27T06:13:36;15.80;99.90
3727;DHT22;1879;45.876;12.300;2022-09-27T06:16:04;15.80;99.90
3727;DHT22;1879;45.876;12.300;2022-09-27T06:18:31;15.80;99.90
3727;DHT22;1879;45.876;12.300;2022-09-27T06:20:59;15.80;99.90
3727;DHT22;1879;45.876;12.300;2022-09-27T06:23:26;15.80;99.90
3727;DHT22;1879;45.876;12.300;2022-09-27T06:25:53;15.70;99.90
3727;DHT22;1879;45.876;12.300;2022-09-27T06:28:21;15.80;99.90
3727;DHT22;1879;45.876;12.300;2022-09-27T06:30:50;15.80;99.90
3727;DHT22;1879;45.876;12.300;2022-09-27T06:33:18;15.80;99.90
3727;DHT22;1879;45.876;12.300;2022-09-27T06:35:46;15.80;99.90
3727;DHT22;1879;45.876;12.300;2022-09-27T06:38:16;15.80;99.90
3727;DHT22;1879;45.876;12.300;2022-09-27T06:40:44;15.90;99.90
3727;DHT22;1879;45.876;12.300;2022-09-27T06:43:13;16.00;99.90
3727;DHT22;1879;45.876;12.300;2022-09-27T06:45:40;16.10;99.90
3727;DHT22;1879;45.876;12.300;2022-09-27T06:48:09;16.30;99.90
3727;DHT22;1879;45.876;12.300;2022-09-27T06:50:38;16.50;99.90
3727;DHT22;1879;45.876;12.300;2022-09-27T06:53:06;16.60;99.90
3727;DHT22;1879;45.876;12.300;2022-09-27T06:55:35;16.70;99.90
3727;DHT22;1879;45.876;12.300;2022-09-27T06:58:02;16.80;99.90
3727;DHT22;1879;45.876;12.300;2022-09-27T07:00:49;17.00;99.90
3727;DHT22;1879;45.876;12.300;2022-09-27T07:03:18;17.10;99.90
3727;DHT22;1879;45.876;12.300;2022-09-27T07:05:54;17.20;99.90
3727;DHT22;1879;45.876;12.300;2022-09-27T07:08:22;17.30;99.90
3727;DHT22;1879;45.876;12.300;2022-09-27T07:10:51;17.30;99.90
3727;DHT22;1879;45.876;12.300;2022-09-27T07:13:20;17.20;99.90
3727;DHT22;1879;45.876;12.300;2022-09-27T07:15:47;17.20;99.90
3727;DHT22;1879;45.876;12.300;2022-09-27T07:18:14;17.20;99.90
3727;DHT22;1879;45.876;12.300;2022-09-27T07:20:43;17.20;99.90
3727;DHT22;1879;45.876;12.300;2022-09-27T07:23:10;17.30;99.90
3727;DHT22;1879;45.876;12.300;2022-09-27T07:25:37;17.30;99.90
3727;DHT22;1879;45.876;12.300;2022-09-27T07:28:06;17.30;99.90
3727;DHT22;1879;45.876;12.300;2022-09-27T07:30:35;17.30;99.90
3727;DHT22;1879;45.876;12.300;2022-09-27T07:33:04;17.20;99.90
3727;DHT22;1879;45.876;12.300;2022-09-27T07:35:31;17.00;99.90
3727;DHT22;1879;45.876;12.300;2022-09-27T07:38:00;16.90;99.90
3727;DHT22;1879;45.876;12.300;2022-09-27T07:40:28;16.90;99.90
3727;DHT22;1879;45.876;12.300;2022-09-27T07:42:55;17.00;99.90
3727;DHT22;1879;45.876;12.300;2022-09-27T07:45:23;17.00;99.90
3727;DHT22;1879;45.876;12.300;2022-09-27T07:47:50;17.00;99.90
3727;DHT22;1879;45.876;12.300;2022-09-27T07:50:17;17.10;99.90
3727;DHT22;1879;45.876;12.300;2022-09-27T07:52:46;17.10;99.90
3727;DHT22;1879;45.876;12.300;2022-09-27T07:55:17;17.20;99.90
3727;DHT22;1879;45.876;12.300;2022-09-27T07:57:45;17.30;99.90
3727;DHT22;1879;45.876;12.300;2022-09-27T08:00:13;17.40;99.90
3727;DHT22;1879;45.876;12.300;2022-09-27T08:02:41;17.50;99.90
3727;DHT22;1879;45.876;12.300;2022-09-27T08:05:09;17.60;99.90
3727;DHT22;1879;45.876;12.300;2022-09-27T08:07:40;17.70;99.90
3727;DHT22;1879;45.876;12.300;2022-09-27T08:10:08;17.90;99.90
3727;DHT22;1879;45.876;12.300;2022-09-27T08:12:39;18.20;99.90
3727;DHT22;1879;45.876;12.300;2022-09-27T08:15:06;18.40;99.90
3727;DHT22;1879;45.876;12.300;2022-09-27T08:17:33;18.70;99.90
3727;DHT22;1879;45.876;12.300;2022-09-27T08:20:01;18.80;99.90
3727;DHT22;1879;45.876;12.300;2022-09-27T08:22:31;18.80;99.90
3727;DHT22;1879;45.876;12.300;2022-09-27T08:24:58;18.80;99.90
3727;DHT22;1879;45.876;12.300;2022-09-27T08:27:24;18.70;99.90
3727;DHT22;1879;45.876;12.300;2022-09-27T08:29:53;18.80;99.90
3727;DHT22;1879;45.876;12.300;2022-09-27T08:32:20;18.70;99.90
3727;DHT22;1879;45.876;12.300;2022-09-27T08:34:47;18.70;99.90
3727;DHT22;1879;45.876;12.300;2022-09-27T08:37:14;18.70;99.90
3727;DHT22;1879;45.876;12.300;2022-09-27T08:39:41;18.50;99.90
3727;DHT22;1879;45.876;12.300;2022-09-27T08:42:17;18.40;99.90
3727;DHT22;1879;45.876;12.300;2022-09-27T08:44:56;18.30;99.90
3727;DHT22;1879;45.876;12.300;2022-09-27T08:47:28;18.30;99.90
3727;DHT22;1879;45.876;12.300;2022-09-27T08:50:01;18.40;99.90
3727;DHT22;1879;45.876;12.300;2022-09-27T08:52:32;18.40;99.90
3727;DHT22;1879;45.876;12.300;2022-09-27T08:55:05;18.50;99.90
3727;DHT22;1879;45.876;12.300;2022-09-27T08:57:35;18.50;99.90
3727;DHT22;1879;45.876;12.300;2022-09-27T09:00:06;18.60;99.90
3727;DHT22;1879;45.876;12.300;2022-09-27T09:02:34;18.80;99.90
3727;DHT22;1879;45.876;12.300;2022-09-27T09:05:06;18.90;99.90
3727;DHT22;1879;45.876;12.300;2022-09-27T09:07:46;19.00;99.90
3727;DHT22;1879;45.876;12.300;2022-09-27T09:10:28;19.00;99.90
3727;DHT22;1879;45.876;12.300;2022-09-27T09:13:28;19.00;99.90
3727;DHT22;1879;45.876;12.300;2022-09-27T09:16:04;18.80;99.90
3727;DHT22;1879;45.876;12.300;2022-09-27T09:18:49;18.60;99.90
3727;DHT22;1879;45.876;12.300;2022-09-27T09:21:26;18.50;99.90
3727;DHT22;1879;45.876;12.300;2022-09-27T09:24:16;18.40;99.90
3727;DHT22;1879;45.876;12.300;2022-09-27T09:26:52;18.30;99.90
3727;DHT22;1879;45.876;12.300;2022-09-27T09:29:32;18.20;99.90
3727;DHT22;1879;45.876;12.300;2022-09-27T09:32:10;18.20;99.90
3727;DHT22;1879;45.876;12.300;2022-09-27T09:34:47;18.20;99.90
3727;DHT22;1879;45.876;12.300;2022-09-27T09:37:21;18.30;99.90
3727;DHT22;1879;45.876;12.300;2022-09-27T09:39:52;18.30;99.90
3727;DHT22;1879;45.876;12.300;2022-09-27T09:42:25;18.30;99.90
3727;DHT22;1879;45.876;12.300;2022-09-27T09:44:58;18.40;99.90
3727;DHT22;1879;45.876;12.300;2022-09-27T09:47:32;18.40;99.90
3727;DHT22;1879;45.876;12.300;2022-09-27T09:50:04;18.40;99.90
3727;DHT22;1879;45.876;12.300;2022-09-27T09:52:38;18.50;99.90
3727;DHT22;1879;45.876;12.300;2022-09-27T09:55:14;18.50;99.90
3727;DHT22;1879;45.876;12.300;2022-09-27T09:57:51;18.60;99.90
3727;DHT22;1879;45.876;12.300;2022-09-27T10:00:20;18.60;99.90
3727;DHT22;1879;45.876;12.300;2022-09-27T10:02:52;18.70;99.90
3727;DHT22;1879;45.876;12.300;2022-09-27T10:05:22;18.80;99.90
3727;DHT22;1879;45.876;12.300;2022-09-27T10:07:51;19.00;99.90
3727;DHT22;1879;45.876;12.300;2022-09-27T10:10:20;19.10;99.90
3727;DHT22;1879;45.876;12.300;2022-09-27T10:12:48;19.30;99.90
3727;DHT22;1879;45.876;12.300;2022-09-27T10:15:17;19.40;99.90
3727;DHT22;1879;45.876;12.300;2022-09-27T10:17:47;19.60;99.90
3727;DHT22;1879;45.876;12.300;2022-09-27T10:20:27;19.70;99.90
3727;DHT22;1879;45.876;12.300;2022-09-27T10:23:23;19.70;99.90
3727;DHT22;1879;45.876;12.300;2022-09-27T10:25:57;19.90;99.90
3727;DHT22;1879;45.876;12.300;2022-09-27T10:28:28;20.00;99.90
3727;DHT22;1879;45.876;12.300;2022-09-27T10:30:59;19.90;99.90
3727;DHT22;1879;45.876;12.300;2022-09-27T10:33:28;19.90;99.90
3727;DHT22;1879;45.876;12.300;2022-09-27T10:35:57;19.90;99.90
3727;DHT22;1879;45.876;12.300;2022-09-27T10:38:27;20.10;99.90
3727;DHT22;1879;45.876;12.300;2022-09-27T10:40:55;20.10;99.90
3727;DHT22;1879;45.876;12.300;2022-09-27T10:43:29;20.20;99.90
3727;DHT22;1879;45.876;12.300;2022-09-27T10:46:02;20.40;99.90
3727;DHT22;1879;45.876;12.300;2022-09-27T10:48:30;20.50;99.90
3727;DHT22;1879;45.876;12.300;2022-09-27T10:50:59;20.70;99.90
3727;DHT22;1879;45.876;12.300;2022-09-27T10:53:28;20.80;99.90
3727;DHT22;1879;45.876;12.300;2022-09-27T10:55:57;20.90;99.90
3727;DHT22;1879;45.876;12.300;2022-09-27T10:58:26;21.10;99.90
3727;DHT22;1879;45.876;12.300;2022-09-27T11:00:56;21.20;99.90
3727;DHT22;1879;45.876;12.300;2022-09-27T11:03:26;21.30;99.90
3727;DHT22;1879;45.876;12.300;2022-09-27T11:05:54;21.40;99.90
3727;DHT22;1879;45.876;12.300;2022-09-27T11:08:29;21.40;99.90
3727;DHT22;1879;45.876;12.300;2022-09-27T11:11:14;21.30;99.90
3727;DHT22;1879;45.876;12.300;2022-09-27T11:13:57;21.40;99.90
3727;DHT22;1879;45.876;12.300;2022-09-27T11:16:40;21.90;99.90
3727;DHT22;1879;45.876;12.300;2022-09-27T11:22:06;22.40;99.90
3727;DHT22;1879;45.876;12.300;2022-09-27T11:24:55;22.80;99.90
3727;DHT22;1879;45.876;12.300;2022-09-27T11:27:31;23.10;99.90
3727;DHT22;1879;45.876;12.300;2022-09-27T11:30:09;23.00;99.90
3727;DHT22;1879;45.876;12.300;2022-09-27T11:32:53;23.00;99.90
3727;DHT22;1879;45.876;12.300;2022-09-27T11:35:43;23.40;99.90
3727;DHT22;1879;45.876;12.300;2022-09-27T11:38:17;23.50;99.90
3727;DHT22;1879;45.876;12.300;2022-09-27T11:41:07;23.30;99.90
3727;DHT22;1879;45.876;12.300;2022-09-27T11:46:30;22.10;99.90
3727;DHT22;1879;45.876;12.300;2022-09-27T11:49:22;22.70;99.90
3727;DHT22;1879;45.876;12.300;2022-09-27T11:52:08;24.90;98.70
3727;DHT22;1879;45.876;12.300;2022-09-27T11:54:56;27.40;95.30
3727;DHT22;1879;45.876;12.300;2022-09-27T11:57:30;29.20;91.30
3727;DHT22;1879;45.876;12.300;2022-09-27T12:00:13;30.60;86.80
3727;DHT22;1879;45.876;12.300;2022-09-27T12:03:13;31.30;77.30
3727;DHT22;1879;45.876;12.300;2022-09-27T12:05:56;31.60;74.80
3727;DHT22;1879;45.876;12.300;2022-09-27T12:08:33;31.90;72.70
3727;DHT22;1879;45.876;12.300;2022-09-27T12:11:10;32.00;70.50
3727;DHT22;1879;45.876;12.300;2022-09-27T12:13:42;32.20;69.10
3727;DHT22;1879;45.876;12.300;2022-09-27T12:16:15;33.30;69.50
3727;DHT22;1879;45.876;12.300;2022-09-27T12:18:44;32.60;60.80
3727;DHT22;1879;45.876;12.300;2022-09-27T12:21:12;32.50;62.10
3727;DHT22;1879;45.876;12.300;2022-09-27T12:23:42;33.50;64.60
3727;DHT22;1879;45.876;12.300;2022-09-27T12:26:12;33.60;62.20
3727;DHT22;1879;45.876;12.300;2022-09-27T12:28:47;33.70;59.90
3727;DHT22;1879;45.876;12.300;2022-09-27T12:31:19;33.80;60.00
3727;DHT22;1879;45.876;12.300;2022-09-27T12:33:54;34.50;57.10
3727;DHT22;1879;45.876;12.300;2022-09-27T12:36:29;33.60;54.20
3727;DHT22;1879;45.876;12.300;2022-09-27T12:39:03;33.80;56.70
3727;DHT22;1879;45.876;12.300;2022-09-27T12:41:36;33.40;56.90
3727;DHT22;1879;45.876;12.300;2022-09-27T12:44:06;33.50;55.80
3727;DHT22;1879;45.876;12.300;2022-09-27T12:46:41;32.80;55.30
3727;DHT22;1879;45.876;12.300;2022-09-27T12:49:17;32.80;57.50
3727;DHT22;1879;45.876;12.300;2022-09-27T12:51:53;33.40;56.80
3727;DHT22;1879;45.876;12.300;2022-09-27T12:54:43;34.00;54.80
3727;DHT22;1879;45.876;12.300;2022-09-27T12:57:25;33.80;54.00
3727;DHT22;1879;45.876;12.300;2022-09-27T13:00:07;32.90;54.30
3727;DHT22;1879;45.876;12.300;2022-09-27T13:03:08;32.60;54.50
3727;DHT22;1879;45.876;12.300;2022-09-27T13:06:01;32.90;54.40
3727;DHT22;1879;45.876;12.300;2022-09-27T13:08:47;31.30;55.80
3727;DHT22;1879;45.876;12.300;2022-09-27T13:11:22;29.80;58.50
3727;DHT22;1879;45.876;12.300;2022-09-27T13:13:54;30.00;57.70
3727;DHT22;1879;45.876;12.300;2022-09-27T13:16:24;31.10;57.50
3727;DHT22;1879;45.876;12.300;2022-09-27T13:18:55;31.10;55.90
3727;DHT22;1879;45.876;12.300;2022-09-27T13:21:54;31.90;56.80
3727;DHT22;1879;45.876;12.300;2022-09-27T13:24:44;33.10;55.60
3727;DHT22;1879;45.876;12.300;2022-09-27T13:27:38;33.50;53.90
3727;DHT22;1879;45.876;12.300;2022-09-27T13:33:40;32.00;57.00
3727;DHT22;1879;45.876;12.300;2022-09-27T13:36:25;32.30;57.00
3727;DHT22;1879;45.876;12.300;2022-09-27T13:41:59;33.50;54.80
3727;DHT22;1879;45.876;12.300;2022-09-27T13:44:37;30.90;54.10
3727;DHT22;1879;45.876;12.300;2022-09-27T13:47:19;28.80;57.50
3727;DHT22;1879;45.876;12.300;2022-09-27T13:49:56;27.10;60.60
3727;DHT22;1879;45.876;12.300;2022-09-27T13:52:28;26.10;62.50
3727;DHT22;1879;45.876;12.300;2022-09-27T13:54:59;25.70;64.10
3727;DHT22;1879;45.876;12.300;2022-09-27T14:00:07;25.30;66.30
3727;DHT22;1879;45.876;12.300;2022-09-27T14:02:40;24.90;68.80
3727;DHT22;1879;45.876;12.300;2022-09-27T14:05:13;24.70;72.10
3727;DHT22;1879;45.876;12.300;2022-09-27T14:07:44;24.70;72.60
3727;DHT22;1879;45.876;12.300;2022-09-27T14:10:14;24.70;74.40
3727;DHT22;1879;45.876;12.300;2022-09-27T14:12:43;24.40;74.70
3727;DHT22;1879;45.876;12.300;2022-09-27T14:15:18;24.00;75.20
3727;DHT22;1879;45.876;12.300;2022-09-27T14:17:47;23.80;77.30
3727;DHT22;1879;45.876;12.300;2022-09-27T14:20:35;23.60;78.40
3727;DHT22;1879;45.876;12.300;2022-09-27T14:23:03;23.40;79.60
3727;DHT22;1879;45.876;12.300;2022-09-27T14:25:30;23.10;81.80
3727;DHT22;1879;45.876;12.300;2022-09-27T14:27:57;23.00;83.80
3727;DHT22;1879;45.876;12.300;2022-09-27T14:30:26;22.90;86.30
3727;DHT22;1879;45.876;12.300;2022-09-27T14:32:55;22.80;89.80
3727;DHT22;1879;45.876;12.300;2022-09-27T14:35:27;22.70;90.90
3727;DHT22;1879;45.876;12.300;2022-09-27T14:38:16;22.70;92.40
3727;DHT22;1879;45.876;12.300;2022-09-27T14:40:57;22.60;92.50
3727;DHT22;1879;45.876;12.300;2022-09-27T14:43:25;22.60;93.10
3727;DHT22;1879;45.876;12.300;2022-09-27T14:45:55;22.50;93.30
3727;DHT22;1879;45.876;12.300;2022-09-27T14:48:27;22.40;93.70
3727;DHT22;1879;45.876;12.300;2022-09-27T14:50:58;22.30;94.20
3727;DHT22;1879;45.876;12.300;2022-09-27T14:53:31;22.00;95.30
3727;DHT22;1879;45.876;12.300;2022-09-27T14:55:59;21.90;99.90
3727;DHT22;1879;45.876;12.300;2022-09-27T14:58:27;21.70;99.90
3727;DHT22;1879;45.876;12.300;2022-09-27T15:00:56;21.40;99.90
3727;DHT22;1879;45.876;12.300;2022-09-27T15:03:27;21.20;99.90
3727;DHT22;1879;45.876;12.300;2022-09-27T15:05:56;21.10;99.90
3727;DHT22;1879;45.876;12.300;2022-09-27T15:08:26;21.00;99.90
3727;DHT22;1879;45.876;12.300;2022-09-27T15:10:56;20.90;99.90
3727;DHT22;1879;45.876;12.300;2022-09-27T15:13:24;20.80;99.90
3727;DHT22;1879;45.876;12.300;2022-09-27T15:15:53;20.70;99.90
3727;DHT22;1879;45.876;12.300;2022-09-27T15:18:31;20.60;99.90
3727;DHT22;1879;45.876;12.300;2022-09-27T15:20:59;20.50;99.90
3727;DHT22;1879;45.876;12.300;2022-09-27T15:23:28;20.40;99.90
3727;DHT22;1879;45.876;12.300;2022-09-27T15:26:03;20.40;99.90
3727;DHT22;1879;45.876;12.300;2022-09-27T15:28:35;20.30;99.90
3727;DHT22;1879;45.876;12.300;2022-09-27T15:31:05;20.20;99.90
3727;DHT22;1879;45.876;12.300;2022-09-27T15:33:33;20.20;99.90
3727;DHT22;1879;45.876;12.300;2022-09-27T15:36:03;20.20;99.90
3727;DHT22;1879;45.876;12.300;2022-09-27T15:38:31;20.30;99.90
3727;DHT22;1879;45.876;12.300;2022-09-27T15:41:05;20.30;99.90
3727;DHT22;1879;45.876;12.300;2022-09-27T15:43:35;20.40;99.90
3727;DHT22;1879;45.876;12.300;2022-09-27T15:46:27;20.40;99.90
3727;DHT22;1879;45.876;12.300;2022-09-27T15:49:17;20.40;99.90
3727;DHT22;1879;45.876;12.300;2022-09-27T15:51:46;20.40;99.90
3727;DHT22;1879;45.876;12.300;2022-09-27T15:54:17;20.50;99.90
3727;DHT22;1879;45.876;12.300;2022-09-27T15:56:45;20.50;99.90
3727;DHT22;1879;45.876;12.300;2022-09-27T15:59:18;20.40;99.90
3727;DHT22;1879;45.876;12.300;2022-09-27T16:01:46;20.40;99.90
3727;DHT22;1879;45.876;12.300;2022-09-27T16:04:13;20.40;99.90
3727;DHT22;1879;45.876;12.300;2022-09-27T16:06:40;20.40;99.90
3727;DHT22;1879;45.876;12.300;2022-09-27T16:09:13;20.30;99.90
3727;DHT22;1879;45.876;12.300;2022-09-27T16:11:45;20.30;99.90
3727;DHT22;1879;45.876;12.300;2022-09-27T16:14:13;20.20;99.90
3727;DHT22;1879;45.876;12.300;2022-09-27T16:16:43;20.10;99.90
3727;DHT22;1879;45.876;12.300;2022-09-27T16:19:11;20.00;99.90
3727;DHT22;1879;45.876;12.300;2022-09-27T16:21:38;20.10;99.90
3727;DHT22;1879;45.876;12.300;2022-09-27T16:24:07;20.20;99.90
3727;DHT22;1879;45.876;12.300;2022-09-27T16:26:34;20.20;99.90
3727;DHT22;1879;45.876;12.300;2022-09-27T16:29:03;20.20;99.90
3727;DHT22;1879;45.876;12.300;2022-09-27T16:31:30;20.20;99.90
3727;DHT22;1879;45.876;12.300;2022-09-27T16:33:57;20.10;99.90